more information


Meteosat more information blitzortung!


Radar lluvias  rain snow radar


Visita nuestra red de sitios de meteo:

Template documentation
and downloads

And another site



No particular awareness of the weather is required.    There are no Weather-warnings

Informes METAR proximidad

   
EHVK - Volkel Rnlafb, Netherlands
Distancia hasta la estación: SW 18 km
Actualización: 21-05-2022 14:25
Parcialmente nublado  
Parcialmente nublado  
   Viento: West 13 km/h
Viento: West 13 km/h
Temperatura: 18°C
Punto de rocío: 9°C
Humedad: 56%
Baromètro: 1021 hPa
Nublado: Parcialmente nublado
Visibilidad: More than 10 km
detalles de la nube: Nubes dispersas 1097.3 m,
Parcialmente Nublado 1341.1 m,
Parcialmente nublado 1493.5 m
EHVK 211225Z AUTO 27007KT 230V320 9999 FEW036 SCT044 BKN049 18/09 Q1021 BLU
EDLV - Niederrhein, Germany
Distancia hasta la estación: SE 25 km
Actualización: 21-05-2022 14:20
Parcialmente nublado  
Parcialmente nublado  
   Viento: West 20.4 km/h
Viento: West 20.4 km/h
Temperatura: 18°C
Punto de rocío: 10°C
Humedad: 60%
Baromètro: 1021 hPa
Nublado: Parcialmente nublado
Visibilidad: More than 10 km
detalles de la nube: Nubes dispersas 1036.3 m,
Parcialmente nublado 1219.2 m
EDLV 211220Z 26011KT 9999 FEW034 BKN040 18/10 Q1021
EHDL - Deelen Rnlafb, Netherlands
Distancia hasta la estación: N 35 km
Actualización: 21-05-2022 14:25
Parcialmente nublado  
Parcialmente nublado  
   Viento: WSW 18.5 km/h
Viento: WSW 18.5 km/h
Temperatura: 18°C
Punto de rocío: 9°C
Humedad: 56%
Baromètro: 1021 hPa
Nublado: Parcialmente nublado
Visibilidad: More than 10 km
detalles de la nube: Nubes dispersas 883.9 m,
Parcialmente Nublado 1005.8 m,
Parcialmente nublado 1158.2 m
EHDL 211225Z AUTO 25010KT 190V360 9999 FEW029 SCT033 BKN038 18/09 Q1021 BLU
EHEH - Eindhoven Rnlafb, Netherlands
Distancia hasta la estación: SW 48 km
Actualización: 21-05-2022 14:25
Nublado  
Nublado  
   Viento: WSW 18.5 km/h
Viento: WSW 18.5 km/h
Temperatura: 19°C
Punto de rocío: 11°C
Humedad: 60%
Baromètro: 1021 hPa
Nublado: Nublado
Visibilidad: More than 10 km
detalles de la nube: Parcialmente Nublado 975.4 m,
Parcialmente Nublado 1554.5 m,
Nublado 4876.8 m
EHEH 211225Z AUTO 25010KT 210V330 9999 SCT032 SCT051 OVC160 19/11 Q1021 BLU NOSIG
EHGR - Gilze-Rijen Rnla, Netherlands
Distancia hasta la estación: WSW 70 km
Actualización: 21-05-2022 14:25
  
  
   Viento: West 20.4 km/h
Viento: West 20.4 km/h
Temperatura: 18°C
Punto de rocío: 10°C
Humedad: 60%
Baromètro: 1022 hPa
Visibilidad: More than 10 km
EHGR 211225Z AUTO 26011KT 220V300 9999 ////// 18/10 Q1022 BLU
EBBL - Kleine-Brogel(Ba, Belgium
Distancia hasta la estación: SSW 71 km
Actualización: 21-05-2022 14:25
Parcialmente nublado  
Parcialmente nublado  
   Viento: SW 22.2 km/h
Viento: SW 22.2 km/h
Temperatura: 20°C
Punto de rocío: 9°C
Humedad: 49%
Baromètro: 1022 hPa
Nublado: Parcialmente nublado
Visibilidad: More than 10 km
detalles de la nube: Parcialmente Nublado 1432.6 m,
Parcialmente nublado 1798.3 m
EBBL 211225Z AUTO 23012KT 9999 SCT047/// BKN059/// 20/09 Q1022 BLU

Guión original por  Saratoga-weather.org Adaptado para la plantilla por  Weerstation Leuven

Usted encontrará nuestra información del tiempo también en:

UK Metoffice

European Weather Network

WeatherCloud

Iberian Peninsula Weather Network

AWEKAS

Citizen Weather Observer Program (CWOP)

HAMweather, WeatherForYou, PWS Weather

Equipo utilizado:

Weather-station
Davis Vantage Vue

Weather-program
Weather Display

Weather-server
My Computer

Proveedor
My provider

Davis Vantage Vue

Weather Display

My Computer

My provider